Airfield :
LOGIN :

Register | Disclaimer

   EN    FR    IT 

 










Legend :    VFR   Marginal VFR   IFR   Intensive IFR   Very Intensive IFR
Visi :
Ceiling :
>= 8 km
>= 3000ft
5 to 8 km
1000 to 3000 ft
1500m to 5 km
500 to 1000 ft
800 to 1500m
200 to 500 ft
< 800m
< 200 ft
Symbols :   Thunderstorms  Fog  Heavy snow  Heavy precipitations  Wind > 20 kt
SIGMETs :     Misc.  Thunderstorms  Icing  Turbulence  Mountain Waves  Volcanic Ashes






- Airport Elevation : 113 ft


EKRS - Ringsted

CURRENT METAR :
  • 241220Z AUTO 18010KT 9999 NCD 08/04 Q0999

EXPIRED METARs :
  • 241150Z AUTO 19008KT 150V220 9999 NCD 08/04 Q0999
  • 241120Z AUTO 20008KT 150V240 9999 NCD 08/04 Q0999
  • 241050Z AUTO 18008KT 9999 NCD 07/04 Q0999
  • 241020Z AUTO 18006KT 140V220 9999 NCD 07/04 Q0999
  • 240950Z AUTO 18006KT 9999 NCD 06/04 Q0999
  • 240920Z AUTO 18006KT 9999 NCD 06/04 Q0999
  • 240850Z AUTO 18005KT 150V220 9999 NCD 05/04 Q0999
  • 240820Z AUTO VRB02KT 9999 NCD 04/04 Q0999
  • 240750Z AUTO VRB03KT 9999 NCD 03/03 Q0999

TAF N/A



MET'MAP, your aeronautical weather chart ! - Copyright ORBIFLY December 2007 - Disclaimer

ORBIFLY MET'MAP TEAM :

Programming & Development : Alexandra Zaïnal
Original concept : Baudouin d'Aumeries
Technical & hardware support : Manuel Goepfert
Assistance : Marc-Olivier Méhu




SOURCES & CREDITS :

   NOAA